Time;durP1;ratioP1;P1;durP2;ratioP2;P2;SDS_P1;SDS_P2;PMS_P1;PMS_P2;Temp;Humidity;BMP_temperature;BMP_pressure;BME280_temperature;BME280_humidity;BME280_pressure;Samples;Min_cycle;Max_cycle;Signal;HPM_P1;HPM_P2
2022/02/06 00:00:02;;;;;;;3.30;2.10;;;1.00;99.90;;;;;;6287070;22;20163;-82
2022/02/06 00:02:33;;;;;;;3.20;2.50;;;0.90;99.90;;;;;;6286477;22;20184;-81
2022/02/06 00:04:58;;;;;;;3.57;2.10;;;0.90;99.90;;;;;;6313349;22;20160;-81
2022/02/06 00:07:24;;;;;;;4.13;2.37;;;0.90;99.90;;;;;;6313394;22;20148;-82
2022/02/06 00:09:50;;;;;;;7.50;2.37;;;0.90;99.90;;;;;;6314360;22;20144;-82
2022/02/06 00:12:16;;;;;;;9.43;2.13;;;0.80;99.90;;;;;;6261272;22;20175;-82
2022/02/06 00:14:42;;;;;;;4.87;2.60;;;0.80;99.90;;;;;;6314060;22;20151;-82
2022/02/06 00:17:09;;;;;;;4.37;2.30;;;0.80;99.90;;;;;;6314095;22;20147;-82
2022/02/06 00:19:35;;;;;;;4.27;2.10;;;0.90;99.90;;;;;;6315413;22;20159;-82
2022/02/06 00:22:06;;;;;;;3.73;2.30;;;0.80;99.90;;;;;;6310099;22;20581;-83
2022/02/06 00:24:44;;;;;;;4.43;2.27;;;0.80;99.90;;;;;;6312482;22;20190;-82
2022/02/06 00:27:22;;;;;;;6.33;2.63;;;1.10;99.90;;;;;;6264057;22;20140;-81
2022/02/06 00:29:57;;;;;;;12.53;2.77;;;0.90;99.90;;;;;;6295013;22;20147;-82
2022/02/06 00:32:45;;;;;;;7.60;2.37;;;1.20;99.90;;;;;;6319125;22;20190;-82
2022/02/06 00:35:21;;;;;;;7.33;2.37;;;0.90;99.90;;;;;;6313396;22;20589;-82
2022/02/06 00:43:17;;;;;;;5.13;2.63;;;1.00;99.90;;;;;;6249224;22;20519;-82
2022/02/06 00:45:43;;;;;;;5.90;2.27;;;0.90;99.90;;;;;;6285750;22;20184;-82
2022/02/06 00:48:08;;;;;;;8.40;2.70;;;1.00;99.90;;;;;;6285202;22;20608;-81
2022/02/06 00:50:38;;;;;;;5.90;2.07;;;1.20;99.90;;;;;;6312565;22;20149;-82
2022/02/06 00:53:16;;;;;;;3.13;1.80;;;1.20;99.90;;;;;;6312924;22;20583;-81
2022/02/06 00:55:41;;;;;;;5.90;1.87;;;1.30;99.90;;;;;;6313048;22;20142;-81
2022/02/06 00:58:07;;;;;;;5.63;2.20;;;1.50;99.90;;;;;;6285658;22;20234;-81
2022/02/06 01:00:33;;;;;;;5.33;1.90;;;1.50;99.90;;;;;;6313048;22;20573;-82
2022/02/06 01:02:59;;;;;;;8.20;2.30;;;1.80;99.90;;;;;;6312222;22;20167;-82
2022/02/06 01:05:24;;;;;;;9.93;2.37;;;1.60;99.90;;;;;;6285360;22;20181;-82
2022/02/06 01:07:51;;;;;;;3.37;1.80;;;1.80;99.90;;;;;;6285392;22;20239;-82
2022/02/06 01:10:17;;;;;;;4.80;2.57;;;1.80;99.90;;;;;;6312624;22;20480;-82
2022/02/06 01:12:49;;;;;;;4.47;2.13;;;2.20;99.90;;;;;;6312394;22;20163;-82
2022/02/06 01:15:23;;;;;;;4.30;2.00;;;2.00;99.90;;;;;;6311722;22;20577;-82
2022/02/06 01:18:00;;;;;;;6.57;1.87;;;1.90;99.90;;;;;;6285022;22;20530;-82
2022/02/06 01:20:34;;;;;;;4.73;1.90;;;1.90;99.90;;;;;;6312314;22;20573;-82
2022/02/06 01:23:20;;;;;;;5.77;1.90;;;1.90;99.90;;;;;;6285022;22;20187;-82
2022/02/06 01:26:06;;;;;;;7.50;2.07;;;2.00;99.90;;;;;;6312729;22;20223;-82
2022/02/06 01:28:46;;;;;;;4.27;1.97;;;2.00;99.90;;;;;;6312485;22;20131;-82
2022/02/06 01:33:51;;;;;;;5.50;2.20;;;2.00;99.90;;;;;;6314631;22;20188;-82
2022/02/06 01:41:23;;;;;;;4.73;1.77;;;1.90;99.90;;;;;;6312239;22;20155;-82
2022/02/06 01:44:05;;;;;;;8.60;2.40;;;1.90;99.90;;;;;;6311561;22;20164;-82
2022/02/06 02:00:38;;;;;;;4.87;2.13;;;2.10;99.90;;;;;;6277148;22;20538;-81
2022/02/06 02:03:12;;;;;;;5.93;2.07;;;2.00;99.90;;;;;;6312039;22;20217;-82
2022/02/06 02:19:30;;;;;;;10.23;2.13;;;2.20;99.90;;;;;;6307829;22;20165;-82
2022/02/06 02:45:52;;;;;;;4.10;1.97;;;2.50;99.90;;;;;;6310301;22;20196;-81
2022/02/06 02:48:20;;;;;;;7.20;1.77;;;2.60;99.90;;;;;;6310924;22;20125;-82
2022/02/06 02:50:54;;;;;;;4.00;1.70;;;2.60;99.90;;;;;;6282872;22;20619;-82
2022/02/06 02:53:27;;;;;;;5.97;1.53;;;2.70;99.90;;;;;;6308782;22;20182;-80
2022/02/06 03:01:03;;;;;;;5.30;1.57;;;2.60;99.90;;;;;;6313220;22;20152;-82
2022/02/06 03:03:40;;;;;;;4.93;1.47;;;2.70;99.90;;;;;;6312506;22;20195;-82
2022/02/06 03:06:07;;;;;;;5.80;1.60;;;2.80;99.90;;;;;;6312516;22;20674;-83
2022/02/06 03:08:35;;;;;;;3.10;1.20;;;2.70;99.90;;;;;;6285078;22;20493;-82
2022/02/06 03:11:06;;;;;;;2.43;1.20;;;2.60;99.90;;;;;;6312916;22;20148;-81
2022/02/06 03:21:39;;;;;;;4.37;1.60;;;2.60;99.90;;;;;;6278450;22;20155;-81
2022/02/06 03:24:19;;;;;;;3.50;1.60;;;2.60;99.90;;;;;;6312868;22;20179;-83
2022/02/06 03:26:46;;;;;;;4.03;1.60;;;2.60;99.90;;;;;;6313341;22;20217;-82
2022/02/06 03:29:12;;;;;;;2.93;1.43;;;2.60;99.90;;;;;;6313014;22;20154;-81
2022/02/06 03:31:38;;;;;;;5.87;1.70;;;2.60;99.90;;;;;;6313997;22;20433;-82
2022/02/06 03:34:05;;;;;;;3.10;1.83;;;2.60;99.90;;;;;;6313301;22;20248;-83
2022/02/06 03:36:30;;;;;;;3.17;2.27;;;2.60;99.90;;;;;;6285692;22;20153;-81
2022/02/06 03:38:56;;;;;;;4.67;1.90;;;2.60;99.90;;;;;;6313657;22;20152;-82
2022/02/06 03:41:23;;;;;;;6.40;1.63;;;2.60;99.90;;;;;;6285849;22;20168;-82
2022/02/06 03:43:56;;;;;;;3.33;1.70;;;2.60;99.90;;;;;;6287712;22;20172;-83
2022/02/06 03:51:21;;;;;;;5.70;2.00;;;2.60;99.90;;;;;;6314330;22;20156;-82
2022/02/06 03:53:50;;;;;;;7.83;2.13;;;2.60;99.90;;;;;;6313588;22;20159;-82
2022/02/06 03:56:18;;;;;;;4.33;1.70;;;2.80;99.90;;;;;;6313531;22;20610;-82
2022/02/06 03:58:44;;;;;;;4.37;1.77;;;2.60;99.90;;;;;;6313276;22;20154;-82
2022/02/06 04:01:09;;;;;;;4.30;1.73;;;2.60;99.90;;;;;;6285981;22;20185;-82
2022/02/06 04:03:35;;;;;;;3.63;1.90;;;2.60;99.90;;;;;;6260555;22;20182;-82
2022/02/06 04:06:01;;;;;;;6.77;1.90;;;2.60;99.90;;;;;;6312347;22;20168;-81
2022/02/06 04:08:29;;;;;;;4.43;1.67;;;2.70;99.90;;;;;;6313397;22;20148;-81
2022/02/06 04:10:56;;;;;;;2.73;1.90;;;2.60;99.90;;;;;;6312681;22;20159;-82
2022/02/06 04:13:24;;;;;;;3.90;1.47;;;2.70;99.90;;;;;;6313352;22;20546;-82
2022/02/06 04:15:58;;;;;;;7.77;1.90;;;2.50;99.90;;;;;;6313023;22;20151;-82
2022/02/06 04:18:35;;;;;;;3.70;1.63;;;2.50;99.90;;;;;;6312492;22;20514;-83
2022/02/06 04:21:01;;;;;;;6.57;1.80;;;2.50;99.90;;;;;;6313245;22;20190;-82
2022/02/06 04:23:27;;;;;;;4.13;1.83;;;2.60;99.90;;;;;;6313363;22;20187;-82
2022/02/06 04:25:52;;;;;;;4.17;1.43;;;2.50;99.90;;;;;;6285177;22;20559;-80
2022/02/06 04:28:18;;;;;;;2.93;1.77;;;2.50;99.90;;;;;;6285563;22;20144;-82
2022/02/06 04:30:44;;;;;;;1.73;1.50;;;2.50;99.90;;;;;;6312217;22;20172;-81
2022/02/06 04:33:10;;;;;;;4.43;1.73;;;2.40;99.90;;;;;;6285431;22;20195;-82
2022/02/06 04:35:38;;;;;;;3.47;2.03;;;2.50;99.90;;;;;;6312212;22;20504;-82
2022/02/06 04:38:37;;;;;;;3.97;1.97;;;2.40;99.90;;;;;;6284850;22;20163;-82
2022/02/06 04:41:34;;;;;;;3.07;1.67;;;2.40;99.90;;;;;;6312777;22;20207;-82
2022/02/06 05:16:08;;;;;;;2.37;1.50;;;2.60;99.90;;;;;;6324150;22;20133;-82
2022/02/06 05:29:16;;;;;;;2.33;1.50;;;2.60;99.90;;;;;;6313314;22;20182;-82
2022/02/06 05:34:16;;;;;;;3.80;1.50;;;3.10;99.90;;;;;;6314341;22;20613;-82
2022/02/06 05:36:42;;;;;;;5.17;1.43;;;2.70;99.90;;;;;;6313441;22;20174;-82
2022/02/06 05:39:08;;;;;;;5.00;1.67;;;2.70;99.90;;;;;;6312418;22;20201;-81
2022/02/06 05:41:34;;;;;;;3.83;1.30;;;2.90;99.90;;;;;;6285008;22;20511;-82
2022/02/06 05:44:00;;;;;;;1.43;1.30;;;2.80;99.90;;;;;;6312788;22;20169;-82
2022/02/06 05:46:25;;;;;;;3.03;1.20;;;2.80;99.90;;;;;;6312653;22;20308;-82
2022/02/06 05:48:51;;;;;;;3.93;1.60;;;2.80;99.90;;;;;;6311932;22;20148;-82
2022/02/06 05:51:17;;;;;;;4.40;1.57;;;2.90;99.90;;;;;;6312877;22;20223;-82
2022/02/06 05:53:43;;;;;;;3.13;1.50;;;2.80;99.90;;;;;;6312209;22;20231;-82
2022/02/06 05:56:09;;;;;;;2.83;1.30;;;2.70;99.90;;;;;;6284912;22;20174;-82
2022/02/06 05:58:35;;;;;;;5.13;1.70;;;2.90;99.90;;;;;;6312814;22;20186;-82
2022/02/06 06:01:00;;;;;;;3.43;1.53;;;2.70;99.90;;;;;;6312913;22;20151;-81
2022/02/06 06:03:26;;;;;;;2.30;1.23;;;2.80;99.90;;;;;;6312847;22;20551;-82
2022/02/06 06:05:52;;;;;;;2.43;1.40;;;2.80;99.90;;;;;;6312217;22;20644;-82
2022/02/06 06:08:18;;;;;;;3.70;1.70;;;2.80;99.90;;;;;;6312244;22;20151;-82
2022/02/06 06:10:43;;;;;;;7.77;1.50;;;2.80;99.90;;;;;;6281359;22;20863;-84
2022/02/06 06:13:09;;;;;;;2.33;1.27;;;2.80;99.90;;;;;;6309953;22;20168;-82
2022/02/06 06:15:36;;;;;;;2.53;1.60;;;3.30;99.90;;;;;;6309841;22;20230;-82
2022/02/06 06:18:04;;;;;;;3.47;1.30;;;2.90;99.90;;;;;;6281955;22;20214;-82
2022/02/06 06:20:35;;;;;;;1.80;1.10;;;2.80;99.90;;;;;;6309498;22;20158;-83
2022/02/06 06:23:01;;;;;;;3.10;1.40;;;2.90;99.90;;;;;;6309751;22;20189;-82
2022/02/06 06:25:34;;;;;;;4.07;1.50;;;2.80;99.90;;;;;;6282897;22;20220;-82
2022/02/06 06:27:59;;;;;;;3.00;1.33;;;2.80;99.90;;;;;;6285815;22;20207;-82
2022/02/06 06:30:27;;;;;;;3.47;1.10;;;2.80;99.90;;;;;;6317049;22;20145;-82
2022/02/06 06:32:52;;;;;;;3.20;1.33;;;2.80;99.90;;;;;;6295077;22;20169;-82
2022/02/06 06:35:18;;;;;;;3.57;1.37;;;2.80;99.90;;;;;;6321648;22;20592;-82
2022/02/06 06:37:44;;;;;;;1.77;1.17;;;2.70;99.90;;;;;;6317139;22;20498;-82
2022/02/06 06:40:10;;;;;;;2.70;1.70;;;2.70;99.90;;;;;;6313692;22;20145;-82
2022/02/06 06:42:36;;;;;;;3.03;1.47;;;2.70;99.90;;;;;;6313691;22;20173;-82
2022/02/06 06:45:02;;;;;;;4.43;1.20;;;2.70;99.90;;;;;;6314105;22;20164;-81
2022/02/06 06:47:27;;;;;;;3.50;1.40;;;2.80;99.90;;;;;;6315368;22;20145;-81
2022/02/06 06:49:53;;;;;;;9.63;1.40;;;2.70;99.90;;;;;;6315373;22;20464;-81
2022/02/06 06:52:19;;;;;;;6.73;1.43;;;3.00;99.90;;;;;;6313808;22;20209;-81
2022/02/06 06:54:49;;;;;;;2.73;1.00;;;2.70;99.90;;;;;;6313496;22;20163;-82
2022/02/06 06:57:25;;;;;;;3.87;1.13;;;2.70;99.90;;;;;;6313968;22;20226;-82
2022/02/06 07:02:28;;;;;;;5.50;1.30;;;2.70;99.90;;;;;;6285237;22;20163;-80
2022/02/06 07:04:57;;;;;;;5.53;1.30;;;3.20;99.90;;;;;;6312993;22;20152;-82
2022/02/06 07:07:23;;;;;;;2.97;1.10;;;2.70;99.90;;;;;;6314280;22;20490;-82
2022/02/06 07:09:49;;;;;;;1.70;1.10;;;3.30;99.90;;;;;;6287114;22;20154;-81
2022/02/06 07:12:14;;;;;;;2.67;1.00;;;2.70;99.90;;;;;;6314144;22;20198;-81
2022/02/06 07:14:44;;;;;;;3.93;1.00;;;2.70;99.90;;;;;;6311291;22;20152;-82
2022/02/06 07:17:10;;;;;;;5.83;1.40;;;2.70;99.90;;;;;;6312371;22;20144;-81
2022/02/06 07:19:36;;;;;;;2.93;1.00;;;2.80;99.90;;;;;;6314015;22;20306;-82
2022/02/06 07:22:02;;;;;;;3.23;1.50;;;2.80;99.90;;;;;;6286121;22;20627;-81
2022/02/06 07:24:28;;;;;;;2.43;0.90;;;2.80;99.90;;;;;;6285671;22;20485;-81
2022/02/06 07:27:01;;;;;;;1.80;0.90;;;2.90;99.90;;;;;;6313483;22;20149;-82
2022/02/06 07:29:27;;;;;;;3.07;1.13;;;2.80;99.90;;;;;;6313833;22;20130;-82
2022/02/06 07:31:55;;;;;;;4.73;1.30;;;2.80;99.90;;;;;;6285754;22;20159;-82
2022/02/06 07:34:20;;;;;;;3.10;1.67;;;2.80;99.90;;;;;;6312983;22;20556;-81
2022/02/06 07:36:46;;;;;;;1.40;1.07;;;2.80;99.90;;;;;;6313140;22;20142;-82
2022/02/06 07:39:12;;;;;;;3.67;1.30;;;2.90;99.90;;;;;;6313724;22;20148;-82
2022/02/06 07:41:38;;;;;;;2.93;1.10;;;2.90;99.90;;;;;;6285814;22;20523;-82
2022/02/06 07:44:04;;;;;;;3.87;1.00;;;2.90;99.90;;;;;;6286176;22;20207;-82
2022/02/06 07:46:34;;;;;;;2.97;1.20;;;3.00;99.90;;;;;;6313614;22;20167;-82
2022/02/06 07:49:02;;;;;;;4.10;1.30;;;3.00;99.90;;;;;;6313661;22;20194;-82
2022/02/06 07:51:28;;;;;;;3.33;1.10;;;3.00;99.90;;;;;;6285720;22;20462;-81
2022/02/06 07:53:54;;;;;;;3.57;1.10;;;3.00;99.90;;;;;;6313513;22;20164;-81
2022/02/06 07:56:20;;;;;;;2.40;0.90;;;3.00;99.90;;;;;;6313344;22;20201;-82
2022/02/06 07:58:45;;;;;;;1.90;1.07;;;3.10;99.90;;;;;;6313190;22;20144;-81
2022/02/06 08:01:11;;;;;;;2.33;1.13;;;3.10;99.90;;;;;;6286206;22;20160;-82
2022/02/06 08:03:37;;;;;;;3.17;0.93;;;3.10;99.90;;;;;;6313109;22;20171;-82
2022/02/06 08:06:02;;;;;;;4.87;1.57;;;3.20;99.90;;;;;;6313553;22;20173;-82
2022/02/06 08:08:28;;;;;;;2.73;1.10;;;3.20;99.90;;;;;;6313551;22;20525;-82
2022/02/06 08:10:59;;;;;;;5.20;1.27;;;3.40;99.90;;;;;;6313464;22;20144;-82
2022/02/06 08:13:38;;;;;;;3.77;1.07;;;3.40;99.90;;;;;;6313407;22;20159;-82
2022/02/06 08:16:04;;;;;;;2.70;1.10;;;3.50;99.90;;;;;;6312199;22;20476;-82
2022/02/06 08:18:30;;;;;;;3.97;1.50;;;3.70;99.90;;;;;;6312436;22;20154;-82
2022/02/06 08:20:56;;;;;;;2.17;1.13;;;3.70;99.90;;;;;;6285075;22;20161;-81
2022/02/06 08:23:23;;;;;;;2.53;1.00;;;3.70;99.90;;;;;;6285362;22;20211;-83
2022/02/06 08:25:49;;;;;;;2.30;0.97;;;3.80;99.90;;;;;;6284618;22;20180;-82
2022/02/06 08:28:17;;;;;;;2.13;1.10;;;3.70;99.90;;;;;;6312867;22;20198;-82
2022/02/06 08:30:43;;;;;;;3.13;1.10;;;4.20;99.90;;;;;;6312960;22;20262;-81
2022/02/06 08:33:09;;;;;;;7.77;1.60;;;3.70;99.90;;;;;;6312356;22;20160;-82
2022/02/06 08:35:34;;;;;;;3.90;1.30;;;4.10;99.90;;;;;;6313362;22;20150;-82
2022/02/06 08:38:00;;;;;;;2.43;1.00;;;3.80;99.90;;;;;;6287054;22;20149;-82
2022/02/06 08:40:26;;;;;;;1.83;1.10;;;4.00;99.90;;;;;;6285467;22;20159;-82
2022/02/06 08:42:51;;;;;;;5.97;1.33;;;4.20;99.90;;;;;;6312554;22;20167;-82
2022/02/06 08:45:20;;;;;;;2.67;1.20;;;3.80;99.90;;;;;;6312895;22;20199;-83
2022/02/06 08:47:46;;;;;;;3.27;1.10;;;3.90;99.90;;;;;;6312669;22;20141;-82
2022/02/06 08:50:13;;;;;;;6.40;1.30;;;4.10;99.90;;;;;;6285679;22;20208;-82
2022/02/06 08:52:39;;;;;;;2.30;1.10;;;4.20;99.90;;;;;;6285645;22;20176;-81
2022/02/06 08:55:08;;;;;;;4.73;1.30;;;4.70;99.90;;;;;;6287402;22;20152;-82
2022/02/06 08:57:35;;;;;;;2.77;1.40;;;4.20;99.90;;;;;;6286130;22;20160;-82
2022/02/06 09:00:03;;;;;;;2.43;1.13;;;4.20;99.90;;;;;;6312424;22;20218;-81
2022/02/06 09:02:28;;;;;;;2.63;1.10;;;4.20;99.90;;;;;;6290001;22;20175;-82
2022/02/06 09:04:54;;;;;;;5.37;1.50;;;4.30;99.90;;;;;;6317699;22;20198;-83
2022/02/06 09:07:21;;;;;;;5.03;1.23;;;4.40;99.90;;;;;;6315717;22;20222;-81
2022/02/06 09:09:56;;;;;;;3.27;1.00;;;4.40;99.90;;;;;;6287644;22;20222;-83
2022/02/06 09:12:22;;;;;;;3.27;1.30;;;4.40;99.90;;;;;;6311957;22;20188;-82
2022/02/06 09:14:48;;;;;;;4.57;1.40;;;4.50;99.90;;;;;;6312421;22;20147;-82
2022/02/06 09:17:14;;;;;;;3.57;1.10;;;4.50;99.90;;;;;;6312516;22;20161;-83
2022/02/06 09:19:40;;;;;;;2.97;1.40;;;4.50;99.90;;;;;;6312056;22;20146;-81
2022/02/06 09:22:10;;;;;;;3.17;1.23;;;4.60;99.90;;;;;;6286853;22;20188;-82
2022/02/06 09:24:37;;;;;;;6.23;1.40;;;4.60;99.90;;;;;;6310951;22;20203;-82
2022/02/06 09:27:04;;;;;;;2.37;0.97;;;4.70;99.90;;;;;;6282412;22;20204;-82
2022/02/06 09:29:29;;;;;;;3.50;1.20;;;4.80;99.90;;;;;;6314128;22;20518;-82
2022/02/06 09:31:56;;;;;;;2.40;1.13;;;5.40;99.90;;;;;;6314730;22;20197;-82
2022/02/06 09:36:48;;;;;;;4.67;1.20;;;5.10;99.90;;;;;;6314659;22;20173;-82
2022/02/06 09:39:15;;;;;;;3.33;1.60;;;5.20;99.90;;;;;;6285483;22;20153;-84
2022/02/06 09:41:46;;;;;;;5.53;1.03;;;5.30;99.90;;;;;;6284233;22;20153;-82
2022/02/06 09:44:16;;;;;;;3.30;1.30;;;5.40;99.90;;;;;;6286243;22;20258;-81
2022/02/06 09:46:45;;;;;;;2.70;1.30;;;5.60;99.90;;;;;;6314747;22;20180;-81
2022/02/06 09:49:13;;;;;;;3.97;1.50;;;5.60;99.90;;;;;;6314345;22;20573;-82
2022/02/06 09:51:41;;;;;;;2.53;1.33;;;5.60;99.90;;;;;;6287107;22;20159;-82
2022/02/06 09:54:08;;;;;;;1.73;1.20;;;5.60;99.90;;;;;;6314013;22;20173;-82
2022/02/06 09:56:36;;;;;;;3.47;1.13;;;5.70;99.90;;;;;;6311144;22;20153;-85
2022/02/06 09:59:06;;;;;;;2.77;1.10;;;5.70;99.90;;;;;;6310896;22;20178;-84
2022/02/06 10:01:34;;;;;;;2.73;1.13;;;5.60;99.90;;;;;;6312828;22;20139;-82
2022/02/06 10:04:07;;;;;;;2.60;1.20;;;5.60;99.90;;;;;;6313924;22;20173;-82
2022/02/06 10:06:48;;;;;;;3.77;1.70;;;5.70;99.90;;;;;;6312656;22;20181;-81
2022/02/06 10:09:18;;;;;;;3.00;0.97;;;5.70;99.90;;;;;;6312389;22;20150;-82
2022/02/06 10:11:52;;;;;;;4.30;1.03;;;5.70;99.90;;;;;;6313408;22;20131;-81
2022/02/06 10:14:18;;;;;;;4.33;1.00;;;6.00;99.90;;;;;;6313531;22;20238;-81
2022/02/06 10:16:44;;;;;;;2.83;1.00;;;5.90;99.90;;;;;;6313552;22;20145;-81
2022/02/06 10:19:10;;;;;;;5.47;1.30;;;5.80;99.90;;;;;;6313671;22;20535;-82
2022/02/06 10:21:36;;;;;;;6.67;1.97;;;5.80;99.90;;;;;;6287366;22;20523;-80
2022/02/06 10:24:14;;;;;;;2.90;1.30;;;5.70;99.90;;;;;;6284851;22;20317;-81
2022/02/06 10:27:25;;;;;;;2.50;1.17;;;5.80;99.90;;;;;;6312655;22;20578;-81
2022/02/06 10:29:37;;;;;;;3.37;1.20;;;5.70;99.90;;;;;;6296576;22;20151;-81
2022/02/06 10:32:04;;;;;;;4.83;1.40;;;5.70;99.90;;;;;;6312088;22;20123;-81
2022/02/06 10:34:35;;;;;;;3.27;1.43;;;5.70;99.90;;;;;;6283151;22;20174;-82
2022/02/06 10:37:20;;;;;;;3.57;1.50;;;5.70;99.90;;;;;;6317339;22;20138;-84
2022/02/06 10:40:05;;;;;;;2.03;1.10;;;5.70;99.90;;;;;;6330256;22;20130;-82
2022/02/06 10:42:36;;;;;;;5.53;1.40;;;5.70;99.90;;;;;;6324546;22;20173;-84
2022/02/06 10:45:20;;;;;;;3.67;1.30;;;5.80;99.90;;;;;;6288161;22;20192;-83
2022/02/06 10:47:48;;;;;;;4.33;1.60;;;5.70;99.90;;;;;;6315489;22;20142;-83
2022/02/06 10:50:18;;;;;;;4.27;1.70;;;5.70;99.90;;;;;;6287003;22;20148;-83
2022/02/06 10:52:44;;;;;;;3.87;1.20;;;5.80;99.90;;;;;;6287706;22;20628;-82
2022/02/06 10:55:11;;;;;;;5.67;1.90;;;5.70;99.90;;;;;;6314773;22;20152;-83
2022/02/06 10:57:52;;;;;;;2.50;1.27;;;5.70;99.90;;;;;;6312435;22;20147;-83
2022/02/06 11:00:32;;;;;;;6.73;1.53;;;5.60;99.90;;;;;;6313643;22;20143;-83
2022/02/06 11:03:03;;;;;;;3.23;1.10;;;5.70;99.90;;;;;;6313249;22;20176;-84
2022/02/06 11:05:46;;;;;;;3.40;1.30;;;5.70;99.90;;;;;;6312811;22;20161;-83
2022/02/06 11:08:22;;;;;;;5.20;1.27;;;5.70;99.90;;;;;;6313437;22;20136;-83
2022/02/06 11:11:00;;;;;;;2.87;1.30;;;5.80;99.90;;;;;;6312587;22;20505;-82
2022/02/06 11:13:27;;;;;;;3.67;1.40;;;5.80;99.90;;;;;;6312213;22;20166;-84
2022/02/06 11:15:53;;;;;;;5.60;2.03;;;5.80;99.90;;;;;;6286254;22;20157;-83
2022/02/06 11:18:23;;;;;;;3.33;1.27;;;5.90;99.90;;;;;;6286376;22;20183;-82
2022/02/06 11:20:59;;;;;;;2.47;0.90;;;5.90;99.90;;;;;;6313860;22;20147;-83
2022/02/06 11:23:37;;;;;;;2.67;1.10;;;5.90;99.90;;;;;;6286098;22;20528;-84
2022/02/06 11:26:07;;;;;;;3.67;1.47;;;6.00;99.90;;;;;;6312353;22;20180;-84
2022/02/06 11:28:35;;;;;;;2.10;1.17;;;5.90;99.90;;;;;;6284813;22;20174;-83
2022/02/06 11:31:01;;;;;;;2.63;1.10;;;5.90;99.90;;;;;;6313663;22;20147;-83
2022/02/06 11:33:27;;;;;;;4.73;1.23;;;6.10;99.90;;;;;;6286259;22;20228;-82
2022/02/06 11:35:58;;;;;;;3.97;1.30;;;6.10;99.90;;;;;;6286842;22;20166;-82
2022/02/06 11:44:09;;;;;;;3.43;0.90;;;6.20;99.90;;;;;;6316370;22;20170;-83
2022/02/06 11:46:40;;;;;;;2.13;1.27;;;6.20;99.90;;;;;;6315122;22;20660;-82
2022/02/06 11:49:13;;;;;;;3.20;1.40;;;6.20;99.90;;;;;;6287811;22;20139;-82
2022/02/06 11:51:53;;;;;;;1.73;0.80;;;6.40;99.90;;;;;;6287057;22;20488;-83
2022/02/06 11:54:33;;;;;;;1.70;0.97;;;6.20;99.90;;;;;;6314654;22;20691;-82
2022/02/06 11:57:22;;;;;;;2.50;0.73;;;6.40;99.90;;;;;;6286184;22;20618;-87
2022/02/06 12:00:04;;;;;;;2.47;0.83;;;6.20;99.90;;;;;;6287353;22;20142;-83
2022/02/06 12:22:09;;;;;;;1.50;0.70;;;6.20;99.90;;;;;;6215594;23;20241;-83
2022/02/06 12:25:26;;;;;;;3.57;0.97;;;6.20;99.90;;;;;;6219145;23;20208;-83
2022/02/06 12:28:30;;;;;;;3.47;1.30;;;6.20;99.90;;;;;;6220706;23;20142;-82
2022/02/06 12:31:26;;;;;;;1.60;0.73;;;6.30;99.90;;;;;;6227481;23;20174;-82
2022/02/06 12:56:36;;;;;;;1.80;0.80;;;6.30;99.90;;;;;;6284181;22;20179;-82
2022/02/06 13:03:35;;;;;;;3.63;0.90;;;6.30;99.90;;;;;;6227803;22;20498;-82
2022/02/06 13:06:20;;;;;;;1.63;0.70;;;6.40;99.90;;;;;;6247931;22;20213;-82
2022/02/06 13:18:09;;;;;;;1.83;0.67;;;6.60;99.90;;;;;;6286532;22;20171;-82
2022/02/06 13:20:57;;;;;;;2.47;0.60;;;6.10;99.90;;;;;;6258497;22;20174;-82
2022/02/06 13:23:47;;;;;;;2.00;0.80;;;6.50;99.90;;;;;;6258860;22;20180;-82
2022/02/06 13:26:27;;;;;;;1.47;0.53;;;6.50;99.90;;;;;;6258852;22;20182;-82
2022/02/06 13:29:30;;;;;;;2.37;0.63;;;6.50;99.90;;;;;;6286410;22;20136;-82
2022/02/06 13:37:10;;;;;;;1.87;0.70;;;6.50;99.90;;;;;;6286261;22;20189;-82
2022/02/06 13:39:46;;;;;;;1.57;0.90;;;6.50;99.90;;;;;;6285745;22;20139;-82
2022/02/06 13:42:17;;;;;;;2.27;0.50;;;6.50;99.90;;;;;;6286253;22;20125;-82
2022/02/06 13:44:43;;;;;;;1.63;0.60;;;6.50;99.90;;;;;;6287162;22;20172;-82
2022/02/06 13:47:10;;;;;;;3.10;0.80;;;6.50;99.90;;;;;;6259209;22;20604;-81
2022/02/06 13:49:45;;;;;;;1.10;0.57;;;6.50;99.90;;;;;;6285635;22;20159;-82
2022/02/06 13:52:17;;;;;;;2.53;0.70;;;6.50;99.90;;;;;;6255070;22;20136;-83
2022/02/06 13:54:50;;;;;;;2.57;0.97;;;6.60;99.90;;;;;;6255565;22;20175;-84
2022/02/06 13:57:18;;;;;;;2.30;0.60;;;6.50;99.90;;;;;;6255070;22;20235;-84
2022/02/06 13:59:44;;;;;;;1.73;0.80;;;6.30;99.90;;;;;;6280736;22;20267;-85
2022/02/06 14:02:13;;;;;;;2.37;0.83;;;7.10;99.90;;;;;;6279477;22;20148;-83
2022/02/06 14:04:49;;;;;;;1.63;0.80;;;6.70;99.90;;;;;;6281792;22;20149;-83
2022/02/06 14:07:22;;;;;;;1.40;0.80;;;6.70;99.90;;;;;;6283665;22;20152;-83
2022/02/06 14:12:28;;;;;;;0.77;0.60;;;6.70;99.90;;;;;;6285869;22;20225;-83
2022/02/06 14:15:05;;;;;;;2.97;0.60;;;6.70;99.90;;;;;;6281714;22;20156;-83
2022/02/06 14:17:38;;;;;;;1.23;0.60;;;6.70;99.90;;;;;;6252537;23;20164;-82
2022/02/06 14:20:17;;;;;;;1.70;0.73;;;6.70;99.90;;;;;;6251736;23;20198;-83
2022/02/06 14:22:57;;;;;;;2.20;0.80;;;6.90;99.90;;;;;;6224638;23;20611;-83
2022/02/06 14:25:34;;;;;;;1.20;0.80;;;6.80;99.90;;;;;;6252196;23;20176;-81
2022/02/06 14:28:30;;;;;;;1.97;0.77;;;6.80;99.90;;;;;;6248266;23;20131;-83
2022/02/06 14:31:01;;;;;;;2.40;1.03;;;6.80;99.90;;;;;;6250736;23;20149;-84
2022/02/06 14:33:46;;;;;;;;;;;;;;;;;;;;;
2022/02/06 14:36:33;;;;;;;2.43;0.77;;;6.80;99.90;;;;;;6251224;23;20161;-83
2022/02/06 14:39:10;;;;;;;2.10;0.90;;;6.80;99.90;;;;;;6222736;23;20415;-83
2022/02/06 14:41:59;;;;;;;1.63;0.80;;;6.80;99.90;;;;;;6251791;23;20136;-83
2022/02/06 14:44:40;;;;;;;;;;;;;;;;;;;;;
2022/02/06 14:47:51;;;;;;;1.00;0.70;;;6.90;99.90;;;;;;6251772;23;20160;-83
2022/02/06 14:50:37;;;;;;;1.70;0.60;;;6.90;99.90;;;;;;6101332;23;20219;-87
2022/02/06 14:53:59;;;;;;;1.33;0.80;;;6.90;99.90;;;;;;6101713;23;20195;-84
2022/02/06 14:57:20;;;;;;;1.30;0.63;;;7.00;99.90;;;;;;6073226;23;20164;-85
2022/02/06 15:10:11;;;;;;;;;;;;;;;;;;;;;
2022/02/06 15:30:58;;;;;;;1.77;0.80;;;6.80;99.90;;;;;;6189300;23;20174;-82
2022/02/06 15:33:36;;;;;;;1.33;0.60;;;6.70;99.90;;;;;;6122172;23;20175;-83
2022/02/06 15:36:09;;;;;;;0.70;0.60;;;6.50;99.90;;;;;;6157893;23;20182;-83
2022/02/06 15:38:56;;;;;;;2.60;0.70;;;6.40;99.90;;;;;;6249286;23;20199;-83
2022/02/06 15:41:34;;;;;;;2.30;0.70;;;6.30;99.90;;;;;;6250540;23;20156;-82
2022/02/06 15:44:09;;;;;;;2.70;0.60;;;6.60;99.90;;;;;;6249413;23;20204;-83
2022/02/06 15:50:32;;;;;;;1.20;0.53;;;6.10;99.90;;;;;;6128639;23;20176;-84
2022/02/06 15:53:16;;;;;;;2.47;0.70;;;6.00;99.90;;;;;;6128599;23;20566;-84
2022/02/06 15:56:12;;;;;;;;;;;;;;;;;;;;;
2022/02/06 15:58:38;;;;;;;1.50;1.10;;;5.70;99.90;;;;;;6252205;23;20180;-83
2022/02/06 16:01:46;;;;;;;1.67;0.90;;;6.40;99.90;;;;;;6251595;23;20155;-82
2022/02/06 16:04:13;;;;;;;0.80;0.50;;;5.70;99.90;;;;;;6209998;23;20195;-83
2022/02/06 16:06:42;;;;;;;1.90;0.60;;;5.60;99.90;;;;;;6224755;23;20205;-85
2022/02/06 16:09:17;;;;;;;0.90;0.67;;;5.50;99.90;;;;;;6224981;23;20161;-84
2022/02/06 16:11:43;;;;;;;1.10;0.70;;;5.30;99.90;;;;;;6223481;23;20646;-84
2022/02/06 16:14:24;;;;;;;0.70;0.57;;;6.10;99.90;;;;;;6222807;23;20169;-85
2022/02/06 16:17:15;;;;;;;0.70;0.60;;;5.20;99.90;;;;;;6249442;23;20524;-84
2022/02/06 16:23:38;;;;;;;1.93;0.60;;;5.20;99.90;;;;;;6158779;23;20173;-84
2022/02/06 16:29:23;;;;;;;1.63;0.73;;;5.00;99.90;;;;;;6187743;23;20172;-84
2022/02/06 16:32:22;;;;;;;0.80;0.77;;;5.00;99.90;;;;;;6162023;23;20213;-83
2022/02/06 16:34:56;;;;;;;0.53;0.47;;;5.70;99.90;;;;;;6164070;23;20150;-80
2022/02/06 16:37:56;;;;;;;0.70;0.70;;;5.50;99.90;;;;;;6187872;23;20168;-82
2022/02/06 16:44:29;;;;;;;;;;;;;;;;;;;;;
2022/02/06 16:47:03;;;;;;;2.00;0.70;;;5.40;99.90;;;;;;6242869;23;20539;-81
2022/02/06 16:50:45;;;;;;;1.37;0.70;;;4.60;99.90;;;;;;6221621;23;20593;-82
2022/02/06 16:53:12;;;;;;;1.63;0.67;;;5.00;99.90;;;;;;6126980;23;20225;-82
2022/02/06 16:55:44;;;;;;;1.63;0.60;;;5.10;99.90;;;;;;6102973;23;20158;-82
2022/02/06 16:58:12;;;;;;;1.77;1.00;;;5.10;99.90;;;;;;6194947;23;20149;-82
2022/02/06 17:00:38;;;;;;;0.57;0.50;;;4.90;99.90;;;;;;6249581;23;20459;-82
2022/02/06 17:03:26;;;;;;;1.50;0.83;;;5.50;99.90;;;;;;6222506;23;20208;-81
2022/02/06 17:05:52;;;;;;;0.50;0.50;;;5.30;99.90;;;;;;6220840;23;20179;-81
2022/02/06 17:08:18;;;;;;;0.50;0.50;;;5.10;99.90;;;;;;6248604;23;20238;-80
2022/02/06 17:10:46;;;;;;;1.90;0.60;;;5.00;99.90;;;;;;6253101;23;20175;-82
2022/02/06 17:13:51;;;;;;;1.23;0.90;;;5.70;99.90;;;;;;6203125;23;20691;-82
2022/02/06 17:16:20;;;;;;;1.20;0.87;;;5.10;99.90;;;;;;6131337;23;20164;-83
2022/02/06 17:19:30;;;;;;;0.67;0.50;;;5.00;99.90;;;;;;6106112;23;20162;-83
2022/02/06 17:22:04;;;;;;;0.80;0.63;;;4.10;99.90;;;;;;6046297;23;20523;-83
2022/02/06 17:28:40;;;;;;;0.80;0.37;;;5.10;99.90;;;;;;6041746;23;20748;-82
2022/02/06 17:31:08;;;;;;;0.50;0.50;;;5.10;99.90;;;;;;5985745;24;20652;-82
2022/02/06 17:36:09;;;;;;;0.70;0.60;;;5.10;99.90;;;;;;6279192;22;20199;-82
2022/02/06 17:38:44;;;;;;;2.10;0.50;;;5.10;99.90;;;;;;6280779;22;20162;-83
2022/02/06 17:41:18;;;;;;;0.87;0.80;;;5.10;99.90;;;;;;6283867;22;20207;-80